Time;durP1;ratioP1;P1;durP2;ratioP2;P2;SDS_P1;SDS_P2;PMS_P1;PMS_P2;Temp;Humidity;BMP_temperature;BMP_pressure;BME280_temperature;BME280_humidity;BME280_pressure;Samples;Min_cycle;Max_cycle;Signal;HPM_P1;HPM_P2
2021/03/28 00:00:27;;;;;;;18.00;10.48;;;307.50;2304.00;;;;;;5067655;28;20021;-78
2021/03/28 00:02:58;;;;;;;18.17;10.45;;;307.40;2304.00;;;;;;5072205;28;20020;-76
2021/03/28 00:05:24;;;;;;;14.45;10.82;;;307.40;2304.00;;;;;;5071662;28;20095;-76
2021/03/28 00:08:00;;;;;;;18.52;10.23;;;307.40;2304.00;;;;;;5071655;28;20020;-78
2021/03/28 00:10:39;;;;;;;12.57;9.75;;;307.30;2304.00;;;;;;5070856;28;20075;-76
2021/03/28 00:13:11;;;;;;;15.23;9.25;;;307.30;2304.00;;;;;;5059475;28;20090;-75
2021/03/28 00:15:42;;;;;;;13.88;9.48;;;307.20;2304.00;;;;;;5067052;28;20051;-76
2021/03/28 00:18:15;;;;;;;16.05;9.98;;;307.20;2304.00;;;;;;5071826;28;20020;-76
2021/03/28 00:20:41;;;;;;;17.23;10.68;;;307.20;2304.00;;;;;;5070883;28;20758;-75
2021/03/28 00:23:18;;;;;;;17.10;10.80;;;307.20;2304.00;;;;;;5071191;28;20044;-75
2021/03/28 00:26:02;;;;;;;17.17;9.57;;;307.20;2304.00;;;;;;5071727;28;20020;-76
2021/03/28 00:28:38;;;;;;;17.38;10.10;;;307.20;2304.00;;;;;;5071510;28;20067;-76
2021/03/28 00:31:27;;;;;;;13.93;9.13;;;307.20;2304.00;;;;;;5070044;28;20402;-76
2021/03/28 00:34:26;;;;;;;15.35;8.68;;;307.20;2304.00;;;;;;5071052;28;20028;-76
2021/03/28 00:37:02;;;;;;;11.98;7.20;;;307.20;2304.00;;;;;;5071937;28;20033;-76
2021/03/28 00:39:30;;;;;;;11.77;7.28;;;282.50;2278.40;;;;;;5071224;28;20025;-75
2021/03/28 00:42:02;;;;;;;11.43;6.85;;;282.50;2278.40;;;;;;5072124;28;20021;-75
2021/03/28 00:44:31;;;;;;;10.95;6.40;;;282.50;2278.40;;;;;;5050473;28;20040;-75
2021/03/28 00:47:02;;;;;;;11.40;6.63;;;282.40;2278.40;;;;;;5072020;28;20203;-76
2021/03/28 00:49:33;;;;;;;10.45;6.55;;;282.50;2278.40;;;;;;5065600;28;20025;-77
2021/03/28 00:52:20;;;;;;;8.68;6.28;;;282.40;2278.40;;;;;;5071031;28;20051;-75
2021/03/28 00:55:11;;;;;;;9.02;6.45;;;282.50;2278.40;;;;;;5071358;28;20021;-75
2021/03/28 00:57:40;;;;;;;9.07;6.10;;;282.50;2278.40;;;;;;5071772;28;20025;-76
2021/03/28 01:00:21;;;;;;;7.88;5.65;;;282.40;2278.40;;;;;;5070852;28;20776;-75
2021/03/28 01:03:06;;;;;;;8.00;5.47;;;282.40;2278.40;;;;;;5071537;28;20059;-74
2021/03/28 01:05:51;;;;;;;7.65;5.07;;;282.40;2252.80;;;;;;5071030;28;20024;-75
2021/03/28 01:08:30;;;;;;;11.93;6.43;;;282.40;2201.60;;;;;;5071295;28;20086;-76
2021/03/28 01:11:20;;;;;;;8.57;5.00;;;282.40;2201.60;;;;;;5071121;28;20094;-78
2021/03/28 01:14:17;;;;;;;8.02;4.85;;;282.30;2201.60;;;;;;5043921;28;20107;-75
2021/03/28 01:16:57;;;;;;;6.47;4.25;;;282.30;2227.20;;;;;;5071855;28;20074;-76
2021/03/28 01:19:41;;;;;;;8.20;4.43;;;282.30;2201.60;;;;;;5071238;28;20036;-76
2021/03/28 01:22:20;;;;;;;9.45;4.72;;;282.30;2201.60;;;;;;5071106;28;20115;-75
2021/03/28 01:24:49;;;;;;;10.00;4.57;;;282.20;2176.00;;;;;;5070934;28;20555;-76
2021/03/28 01:27:27;;;;;;;7.70;4.22;;;282.20;2176.00;;;;;;5070999;28;20027;-75
2021/03/28 01:29:54;;;;;;;9.20;5.35;;;282.20;2150.40;;;;;;5064637;28;20166;-75
2021/03/28 01:32:30;;;;;;;6.25;4.32;;;282.10;2124.80;;;;;;5071441;28;20028;-76
2021/03/28 01:34:59;;;;;;;9.75;4.20;;;282.10;2124.80;;;;;;5070507;28;20036;-76
2021/03/28 01:37:32;;;;;;;7.97;4.05;;;282.10;2124.80;;;;;;5070766;28;20477;-75
2021/03/28 01:40:16;;;;;;;6.93;4.57;;;282.10;2124.80;;;;;;5071202;28;20478;-76
2021/03/28 01:42:50;;;;;;;;;;;282.10;2099.20;;;;;;5065599;28;20555;-76
2021/03/28 01:45:55;;;;;;;6.72;3.85;;;282.10;2099.20;;;;;;5069775;28;19905;-75
2021/03/28 01:48:35;;;;;;;6.78;3.90;;;282.00;2099.20;;;;;;4987701;28;20030;-76
2021/03/28 01:51:40;;;;;;;6.57;3.30;;;282.00;2073.60;;;;;;4992865;28;20046;-75
2021/03/28 01:54:25;;;;;;;;;;;281.80;2099.20;;;;;;4992906;28;20038;-74
2021/03/28 01:57:00;;;;;;;7.45;3.50;;;281.80;2073.60;;;;;;4971052;28;19909;-76
2021/03/28 01:59:35;;;;;;;8.35;4.50;;;281.80;2099.20;;;;;;4992739;28;20042;-76
2021/03/28 02:02:29;;;;;;;8.43;4.20;;;281.80;2099.20;;;;;;4991421;28;20050;-76
2021/03/28 02:04:55;;;;;;;6.28;3.40;;;;;;;;;;4992002;28;20038;-76
2021/03/28 02:07:55;;;;;;;6.05;3.45;;;282.00;2073.60;;;;;;4992819;28;20113;-75
2021/03/28 02:10:51;;;;;;;6.05;3.58;;;281.80;2073.60;;;;;;4992915;28;20471;-76
2021/03/28 02:13:32;;;;;;;6.47;3.22;;;281.80;2073.60;;;;;;4972979;28;20493;-75
2021/03/28 02:16:15;;;;;;;6.97;3.42;;;281.70;2073.60;;;;;;4992814;28;20034;-77
2021/03/28 02:18:50;;;;;;;4.63;3.10;;;281.70;2073.60;;;;;;5012745;28;20390;-76
2021/03/28 02:21:43;;;;;;;8.57;3.20;;;281.60;2073.60;;;;;;5073382;28;20020;-76
2021/03/28 02:24:09;;;;;;;9.43;3.13;;;281.60;2048.00;;;;;;5033929;28;20038;-76
2021/03/28 02:27:04;;;;;;;7.57;3.10;;;281.60;2022.40;;;;;;5040640;28;20140;-76
2021/03/28 02:30:11;;;;;;;6.13;2.75;;;281.60;2022.40;;;;;;5033465;28;20475;-76
2021/03/28 02:32:54;;;;;;;5.43;3.28;;;281.60;2048.00;;;;;;4968001;28;20053;-75
2021/03/28 02:35:54;;;;;;;12.00;2.90;;;281.60;2048.00;;;;;;4973626;28;20089;-76
2021/03/28 02:38:34;;;;;;;6.05;2.80;;;281.60;2048.00;;;;;;4964604;28;20023;-75
2021/03/28 02:41:25;;;;;;;5.72;2.97;;;281.60;2022.40;;;;;;4959169;28;20534;-76
2021/03/28 02:44:10;;;;;;;5.57;2.80;;;281.60;2022.40;;;;;;4953189;29;20070;-76
2021/03/28 02:47:04;;;;;;;5.80;2.90;;;256.90;1996.80;;;;;;4953699;28;20437;-75
2021/03/28 02:49:56;;;;;;;7.53;2.90;;;256.90;2022.40;;;;;;4948440;29;20512;-75
2021/03/28 02:52:46;;;;;;;5.53;2.75;;;256.90;1996.80;;;;;;4953022;28;20035;-75
2021/03/28 02:55:15;;;;;;;8.77;3.00;;;256.80;2022.40;;;;;;4953068;28;20163;-76
2021/03/28 02:58:11;;;;;;;7.40;3.00;;;256.80;2022.40;;;;;;4953208;28;20094;-78
2021/03/28 03:00:51;;;;;;;9.98;3.03;;;256.80;1996.80;;;;;;4952867;28;20072;-75
2021/03/28 03:03:32;;;;;;;4.80;2.60;;;256.80;1971.20;;;;;;4952894;28;20166;-76
2021/03/28 03:06:06;;;;;;;7.95;2.75;;;256.70;1971.20;;;;;;4946245;28;20034;-76
2021/03/28 03:09:00;;;;;;;6.75;2.80;;;256.70;1971.20;;;;;;4970025;28;20115;-76
2021/03/28 03:11:34;;;;;;;6.70;2.60;;;256.70;1971.20;;;;;;5030119;28;20040;-76
2021/03/28 03:14:53;;;;;;;4.32;2.70;;;256.70;1971.20;;;;;;5032312;28;20064;-75
2021/03/28 03:17:25;;;;;;;6.40;2.90;;;256.70;1971.20;;;;;;4971720;28;20109;-77
2021/03/28 03:20:21;;;;;;;7.80;2.80;;;256.60;1971.20;;;;;;4970983;28;20035;-75
2021/03/28 03:23:23;;;;;;;9.68;3.30;;;256.60;1996.80;;;;;;4982854;28;20050;-75
2021/03/28 03:26:03;;;;;;;7.03;2.90;;;256.60;1996.80;;;;;;4976458;28;20053;-75
2021/03/28 03:29:06;;;;;;;6.60;2.70;;;256.50;1996.80;;;;;;4972872;28;20042;-76
2021/03/28 03:31:49;;;;;;;8.52;2.85;;;256.50;1996.80;;;;;;4990906;28;20049;-76
2021/03/28 03:34:30;;;;;;;;;;;256.60;1996.80;;;;;;4990910;28;20096;-76
2021/03/28 03:36:58;;;;;;;9.27;2.90;;;256.60;1996.80;;;;;;4991444;28;19916;-75
2021/03/28 03:39:56;;;;;;;7.32;2.83;;;256.50;1996.80;;;;;;4990506;28;20034;-75
2021/03/28 03:42:54;;;;;;;5.97;2.88;;;256.50;1996.80;;;;;;4990660;28;20042;-76
2021/03/28 03:45:25;;;;;;;6.05;2.70;;;256.50;1996.80;;;;;;4990771;28;20065;-78
2021/03/28 03:48:09;;;;;;;8.82;3.65;;;256.50;1996.80;;;;;;5015003;28;20036;-75
2021/03/28 03:50:58;;;;;;;5.03;2.55;;;256.50;1996.80;;;;;;5051040;28;20063;-75
2021/03/28 03:53:58;;;;;;;4.97;2.40;;;256.50;1996.80;;;;;;5051373;28;20102;-75
2021/03/28 03:56:44;;;;;;;4.65;2.85;;;256.50;1996.80;;;;;;5052495;28;20029;-77
2021/03/28 03:59:16;;;;;;;4.50;2.78;;;256.50;1996.80;;;;;;5052344;28;20017;-75
2021/03/28 04:02:00;;;;;;;5.60;2.30;;;256.50;1996.80;;;;;;5052048;28;20029;-76
2021/03/28 04:05:10;;;;;;;5.80;2.60;;;256.50;1971.20;;;;;;5051757;28;20024;-75
2021/03/28 04:07:38;;;;;;;11.73;2.60;;;256.50;1996.80;;;;;;4971615;28;20396;-75
2021/03/28 04:10:07;;;;;;;3.95;2.35;;;256.80;1971.20;;;;;;4954275;28;20031;-75
2021/03/28 04:12:51;;;;;;;3.85;2.40;;;256.50;1971.20;;;;;;4971611;28;20034;-75
2021/03/28 04:15:56;;;;;;;4.75;2.20;;;256.50;1971.20;;;;;;4968741;28;20034;-77
2021/03/28 04:18:28;;;;;;;6.95;2.58;;;256.50;1971.20;;;;;;4857726;29;20508;-76
2021/03/28 04:21:03;;;;;;;3.85;2.55;;;256.50;1971.20;;;;;;4857493;29;20507;-76
2021/03/28 04:23:35;;;;;;;6.60;2.70;;;256.50;1971.20;;;;;;4857122;29;20159;-76
2021/03/28 04:26:22;;;;;;;4.57;2.65;;;281.70;1996.80;;;;;;4857870;29;20056;-75
2021/03/28 04:28:52;;;;;;;7.00;3.10;;;256.50;1971.20;;;;;;4857951;29;20026;-77
2021/03/28 04:31:55;;;;;;;4.75;2.80;;;256.50;1945.60;;;;;;4856599;29;20054;-76
2021/03/28 04:34:23;;;;;;;6.70;2.60;;;256.40;1945.60;;;;;;4856964;29;20483;-75
2021/03/28 04:37:17;;;;;;;18.42;8.57;;;256.50;1971.20;;;;;;4857185;29;20108;-77
2021/03/28 04:40:09;;;;;;;21.02;9.57;;;256.50;1945.60;;;;;;4857273;29;20040;-76
2021/03/28 04:42:44;;;;;;;11.15;5.80;;;256.50;1945.60;;;;;;4857620;29;20040;-75
2021/03/28 04:45:28;;;;;;;12.50;5.55;;;256.50;1945.60;;;;;;4932271;29;20397;-76
2021/03/28 04:47:58;;;;;;;9.63;4.63;;;256.50;1971.20;;;;;;4923959;29;20031;-76
2021/03/28 04:51:05;;;;;;;11.40;4.65;;;256.40;1945.60;;;;;;4930765;29;20063;-75
2021/03/28 04:53:51;;;;;;;8.10;4.57;;;256.50;1971.20;;;;;;4977690;28;20074;-76
2021/03/28 04:56:41;;;;;;;11.02;4.70;;;256.50;1945.60;;;;;;4980827;28;20461;-75
2021/03/28 04:59:10;;;;;;;7.50;3.78;;;256.50;1945.60;;;;;;4975653;28;20030;-76
2021/03/28 05:01:45;;;;;;;7.82;4.68;;;256.50;1945.60;;;;;;4980228;28;20492;-76
2021/03/28 05:04:35;;;;;;;7.90;3.65;;;256.60;1945.60;;;;;;4987295;28;20148;-76
2021/03/28 05:07:47;;;;;;;6.15;3.42;;;256.60;1945.60;;;;;;4973629;28;20042;-76
2021/03/28 05:10:49;;;;;;;8.50;2.90;;;256.60;1945.60;;;;;;4982101;28;20035;-76
2021/03/28 05:13:36;;;;;;;7.93;2.88;;;256.50;1945.60;;;;;;4985188;28;20027;-76
2021/03/28 05:16:39;;;;;;;6.18;3.30;;;256.60;1920.00;;;;;;4974731;28;20030;-76
2021/03/28 05:20:01;;;;;;;5.53;2.97;;;256.70;1920.00;;;;;;4985711;28;20429;-74
2021/03/28 05:22:45;;;;;;;5.22;2.70;;;256.80;1894.40;;;;;;4953408;29;20055;-75
2021/03/28 05:25:32;;;;;;;4.95;2.90;;;256.80;1894.40;;;;;;4945068;29;20050;-75
2021/03/28 05:28:22;;;;;;;4.82;2.58;;;256.90;1894.40;;;;;;4952704;29;20054;-76
2021/03/28 05:31:21;;;;;;;15.52;3.00;;;256.90;1868.80;;;;;;4971480;28;20575;-75
2021/03/28 05:34:32;;;;;;;6.88;2.72;;;281.60;1894.40;;;;;;4991269;28;20046;-77
2021/03/28 05:37:13;;;;;;;7.57;2.78;;;281.60;1894.40;;;;;;4982511;28;20154;-75
2021/03/28 05:40:02;;;;;;;3.75;2.60;;;281.60;1868.80;;;;;;4991963;28;20129;-76
2021/03/28 05:42:55;;;;;;;5.57;2.80;;;281.60;1868.80;;;;;;4992113;28;20076;-76
2021/03/28 05:45:31;;;;;;;4.93;2.75;;;281.60;1868.80;;;;;;4988389;28;20062;-74
2021/03/28 05:48:33;;;;;;;9.10;2.85;;;281.70;1868.80;;;;;;4988307;28;20034;-75
2021/03/28 05:51:11;;;;;;;14.15;2.92;;;281.80;1843.20;;;;;;4990493;28;20038;-77
2021/03/28 05:53:50;;;;;;;6.45;2.72;;;281.80;1868.80;;;;;;5037815;28;20067;-75
2021/03/28 05:56:42;;;;;;;5.53;2.60;;;282.00;1843.20;;;;;;5054509;28;20471;-75
2021/03/28 05:59:46;;;;;;;5.30;2.90;;;282.00;1817.60;;;;;;5054118;28;20136;-76
2021/03/28 06:02:43;;;;;;;6.72;2.53;;;282.20;1817.60;;;;;;5053179;28;20029;-75
2021/03/28 06:05:25;;;;;;;7.55;2.78;;;282.30;1792.00;;;;;;5053146;28;20025;-75
2021/03/28 06:08:25;;;;;;;4.28;2.58;;;282.50;1792.00;;;;;;5052365;28;20033;-75
2021/03/28 06:11:24;;;;;;;7.63;2.80;;;307.30;1792.00;;;;;;5018282;28;20086;-75
2021/03/28 06:14:27;;;;;;;5.03;2.90;;;307.50;1766.40;;;;;;5010337;28;20456;-74
2021/03/28 06:17:19;;;;;;;6.72;3.05;;;307.70;1740.80;;;;;;5014416;28;20069;-80
2021/03/28 06:20:10;;;;;;;4.20;2.78;;;308.00;1715.20;;;;;;4938015;29;20039;-78
2021/03/28 06:23:12;;;;;;;5.57;2.60;;;308.10;1689.60;;;;;;4935439;29;20043;-74
2021/03/28 06:25:59;;;;;;;5.80;2.92;;;332.90;1715.20;;;;;;4935040;29;20071;-73
2021/03/28 06:28:43;;;;;;;5.13;2.45;;;332.90;1715.20;;;;;;4937979;29;20059;-78
2021/03/28 06:31:09;;;;;;;;;;;332.80;1689.60;;;;;;4948433;28;20540;-78
2021/03/28 06:33:55;;;;;;;4.50;2.70;;;308.10;1689.60;;;;;;4953175;28;19950;-79
2021/03/28 06:36:35;;;;;;;6.82;2.80;;;308.00;1689.60;;;;;;4935567;29;20035;-77
2021/03/28 06:39:31;;;;;;;3.70;2.50;;;307.90;1715.20;;;;;;4948003;29;20035;-73
2021/03/28 06:42:21;;;;;;;3.90;2.67;;;307.90;1715.20;;;;;;4943465;29;20371;-78
2021/03/28 06:45:07;;;;;;;7.10;3.50;;;307.90;1689.60;;;;;;4933793;29;20036;-73
2021/03/28 06:47:51;;;;;;;13.27;7.07;;;307.70;1740.80;;;;;;4945930;28;20045;-74
2021/03/28 06:50:42;;;;;;;16.08;7.00;;;307.60;1740.80;;;;;;4953384;29;20040;-73
2021/03/28 06:53:48;;;;;;;11.57;6.45;;;307.60;1740.80;;;;;;4953543;29;20058;-72
2021/03/28 06:56:17;;;;;;;14.75;8.65;;;307.50;1766.40;;;;;;4980461;28;20438;-73
2021/03/28 06:58:48;;;;;;;17.95;9.13;;;307.50;1766.40;;;;;;5050760;28;20025;-72
2021/03/28 07:01:26;;;;;;;11.68;6.30;;;307.80;1766.40;;;;;;5051702;28;20092;-72
2021/03/28 07:04:26;;;;;;;11.55;6.32;;;307.90;1740.80;;;;;;5049180;28;20113;-74
2021/03/28 07:07:13;;;;;;;12.45;6.43;;;307.90;1740.80;;;;;;5049955;28;20074;-73
2021/03/28 07:09:41;;;;;;;9.63;4.50;;;307.80;1715.20;;;;;;5035735;28;20037;-78
2021/03/28 07:12:27;;;;;;;7.57;3.90;;;307.90;1715.20;;;;;;5052471;28;20036;-73
2021/03/28 07:15:06;;;;;;;262.30;192.52;;;308.00;1664.00;;;;;;4935488;29;20113;-73
2021/03/28 07:18:04;;;;;;;172.93;117.45;;;332.80;1664.00;;;;;;4950037;28;20039;-75
2021/03/28 07:20:44;;;;;;;580.92;451.63;;;332.90;1638.40;;;;;;4910856;28;20111;-73
2021/03/28 07:23:12;;;;;;;399.05;289.52;;;333.20;1664.00;;;;;;4914337;29;20044;-73
2021/03/28 07:25:50;;;;;;;62.78;45.38;;;333.30;1638.40;;;;;;4909293;29;20550;-73
2021/03/28 07:28:46;;;;;;;31.10;20.33;;;333.50;1612.80;;;;;;4913941;29;20035;-73
2021/03/28 07:31:38;;;;;;;12.82;8.85;;;333.40;1612.80;;;;;;4912114;29;20056;-73
2021/03/28 07:34:15;;;;;;;8.45;4.13;;;333.30;1587.20;;;;;;4921867;29;20028;-72
2021/03/28 07:37:01;;;;;;;6.18;3.92;;;333.10;1587.20;;;;;;4931829;29;20082;-78
2021/03/28 07:39:46;;;;;;;6.78;3.65;;;333.20;1587.20;;;;;;4933817;29;20040;-73
2021/03/28 07:42:42;;;;;;;14.07;8.95;;;333.30;1587.20;;;;;;4933098;29;20031;-73
2021/03/28 07:45:22;;;;;;;79.55;11.48;;;333.30;1587.20;;;;;;4932891;28;20035;-74
2021/03/28 07:48:25;;;;;;;92.15;80.15;;;333.50;1561.60;;;;;;4931470;29;20032;-72
2021/03/28 07:51:34;;;;;;;31.20;27.40;;;333.60;1561.60;;;;;;4933041;28;20597;-73
2021/03/28 07:54:15;;;;;;;7.85;4.18;;;333.50;1561.60;;;;;;5003436;28;20026;-74
2021/03/28 07:57:02;;;;;;;8.07;4.70;;;333.70;1561.60;;;;;;5022968;28;20398;-75
2021/03/28 07:59:37;;;;;;;13.52;10.10;;;333.70;1536.00;;;;;;5052017;28;20021;-73
2021/03/28 08:02:09;;;;;;;14.68;13.07;;;333.70;1510.40;;;;;;5045934;28;20032;-76
2021/03/28 08:04:37;;;;;;;19.20;15.35;;;333.70;1536.00;;;;;;5044306;28;20024;-77
2021/03/28 08:07:57;;;;;;;16.35;7.68;;;358.40;1536.00;;;;;;5040964;28;20495;-81
2021/03/28 08:10:41;;;;;;;12.13;5.70;;;358.60;1484.80;;;;;;4965759;28;20439;-79
2021/03/28 08:13:18;;;;;;;15.07;7.63;;;358.70;1433.60;;;;;;4973776;28;20023;-81
2021/03/28 08:16:20;;;;;;;11.45;6.30;;;359.10;1356.80;;;;;;4983239;28;20038;-81
2021/03/28 08:19:07;;;;;;;13.23;5.15;;;359.20;1331.20;;;;;;4964486;28;20035;-80
2021/03/28 08:22:09;;;;;;;12.23;5.65;;;359.10;1356.80;;;;;;4971629;28;20041;-79
2021/03/28 08:25:22;;;;;;;10.43;5.90;;;359.20;1331.20;;;;;;4966917;28;20067;-81
2021/03/28 08:27:59;;;;;;;8.25;5.28;;;;;;;;;;4962941;28;20471;-82
2021/03/28 08:30:48;;;;;;;8.02;4.78;;;384.90;1331.20;;;;;;4966403;28;20035;-81
2021/03/28 08:33:52;;;;;;;19.42;12.98;;;409.80;1280.00;;;;;;4968247;28;20038;-80
2021/03/28 08:36:51;;;;;;;7.53;4.75;;;409.80;1254.40;;;;;;4887320;29;20566;-78
2021/03/28 08:39:45;;;;;;;352.63;24.27;;;384.90;1203.20;;;;;;4898074;29;20040;-81
2021/03/28 08:42:53;;;;;;;15.75;8.88;;;384.30;1228.80;;;;;;4890534;29;20032;-79
2021/03/28 08:45:48;;;;;;;9.60;7.57;;;359.10;1254.40;;;;;;4933429;29;20037;-80
2021/03/28 08:48:36;;;;;;;12.70;8.93;;;358.80;1254.40;;;;;;4950776;29;20028;-79
2021/03/28 08:51:22;;;;;;;10.98;5.60;;;358.70;1280.00;;;;;;4929917;29;20707;-78
2021/03/28 08:54:14;;;;;;;5.40;3.35;;;358.60;1305.60;;;;;;4944914;29;20587;-79
2021/03/28 08:57:01;;;;;;;14.85;9.95;;;358.60;1280.00;;;;;;4942223;29;20129;-79
2021/03/28 08:59:50;;;;;;;94.18;59.15;;;359.00;1280.00;;;;;;4943939;29;20031;-76
2021/03/28 09:02:24;;;;;;;41.38;31.23;;;359.20;1254.40;;;;;;4945371;29;20036;-74
2021/03/28 09:05:04;;;;;;;;;;;359.10;1280.00;;;;;;4948120;29;20031;-77
2021/03/28 09:07:48;;;;;;;11.32;9.85;;;359.20;1305.60;;;;;;4936950;29;19911;-78
2021/03/28 09:10:39;;;;;;;18.90;11.90;;;384.10;1280.00;;;;;;4940400;29;20028;-78
2021/03/28 09:13:30;;;;;;;17.95;8.85;;;384.50;1280.00;;;;;;4956757;28;20042;-78
2021/03/28 09:16:11;;;;;;;14.65;7.97;;;384.60;1254.40;;;;;;4991426;28;20036;-78
2021/03/28 09:18:50;;;;;;;14.98;8.57;;;384.70;1228.80;;;;;;4994461;28;20031;-78
2021/03/28 09:21:25;;;;;;;21.92;10.00;;;384.70;1203.20;;;;;;5028497;28;20438;-76
2021/03/28 09:24:23;;;;;;;26.42;10.32;;;384.80;1203.20;;;;;;5059186;28;20040;-76
2021/03/28 09:27:09;;;;;;;11.38;5.75;;;409.80;1177.60;;;;;;5051887;28;20047;-77
2021/03/28 09:29:44;;;;;;;17.52;8.00;;;409.80;1152.00;;;;;;5064074;28;20537;-76
2021/03/28 09:32:26;;;;;;;13.73;7.32;;;410.20;1126.40;;;;;;5055099;28;20048;-78
2021/03/28 09:35:00;;;;;;;9.45;4.10;;;;;;;;;;5077272;28;20085;-80
2021/03/28 09:37:26;;;;;;;42.00;30.70;;;435.50;1100.80;;;;;;5075340;28;20027;-75
2021/03/28 09:40:38;;;;;;;13.93;8.45;;;435.70;1100.80;;;;;;5074923;28;20534;-78
2021/03/28 09:43:25;;;;;;;9.05;4.07;;;436.00;1049.60;;;;;;5070640;28;20032;-77
2021/03/28 09:46:14;;;;;;;12.35;10.60;;;436.10;998.40;;;;;;5073758;28;20397;-77
2021/03/28 09:49:01;;;;;;;12.10;10.63;;;436.00;972.80;;;;;;5074806;28;20028;-77
2021/03/28 09:51:38;;;;;;;6.50;3.30;;;435.80;947.20;;;;;;5056736;28;20045;-78
2021/03/28 09:54:32;;;;;;;6.45;3.60;;;435.50;998.40;;;;;;5071816;28;20028;-77
2021/03/28 09:57:08;;;;;;;8.35;3.13;;;410.50;998.40;;;;;;5070813;28;20029;-76
2021/03/28 10:00:22;;;;;;;8.05;3.22;;;410.30;1024.00;;;;;;5074997;28;20363;-78
2021/03/28 10:03:21;;;;;;;53.30;33.90;;;410.30;1024.00;;;;;;5067327;28;20478;-74
2021/03/28 10:05:48;;;;;;;28.45;20.15;;;410.20;1024.00;;;;;;5068054;28;20031;-79
2021/03/28 10:08:20;;;;;;;18.20;8.18;;;410.20;1024.00;;;;;;5072342;28;20012;-77
2021/03/28 10:10:52;;;;;;;8.55;2.60;;;410.10;972.80;;;;;;5078408;28;20100;-79
2021/03/28 10:13:43;;;;;;;28.15;3.75;;;410.00;972.80;;;;;;5058785;28;20033;-79
2021/03/28 10:16:12;;;;;;;81.50;61.80;;;410.20;998.40;;;;;;5057265;28;20478;-80
2021/03/28 10:19:01;;;;;;;130.73;116.78;;;410.30;972.80;;;;;;5069008;28;20020;-79
2021/03/28 10:22:06;;;;;;;60.13;22.30;;;410.50;998.40;;;;;;5055464;28;20039;-79
2021/03/28 10:24:52;;;;;;;9.00;4.88;;;435.50;998.40;;;;;;5079622;28;20135;-74
2021/03/28 10:27:30;;;;;;;8.35;3.42;;;435.80;947.20;;;;;;5079746;28;20557;-75
2021/03/28 10:30:25;;;;;;;4.40;2.63;;;435.70;972.80;;;;;;5077666;28;20031;-74
2021/03/28 10:33:00;;;;;;;11.90;3.42;;;435.90;921.60;;;;;;5081113;28;20424;-74
2021/03/28 10:35:26;;;;;;;12.75;5.57;;;435.90;947.20;;;;;;5072459;28;20032;-78
2021/03/28 10:38:06;;;;;;;8.00;3.35;;;435.90;947.20;;;;;;5080152;28;20024;-79
2021/03/28 10:40:44;;;;;;;5.78;3.00;;;435.70;947.20;;;;;;5078105;28;20028;-76
2021/03/28 10:43:39;;;;;;;5.82;3.22;;;435.50;947.20;;;;;;5070538;28;20047;-77
2021/03/28 10:46:31;;;;;;;90.75;67.50;;;435.50;998.40;;;;;;5073896;28;20028;-79
2021/03/28 10:49:02;;;;;;;12.88;8.57;;;435.30;998.40;;;;;;5074388;28;20039;-77
2021/03/28 10:51:47;;;;;;;16.67;3.90;;;435.40;1024.00;;;;;;5073373;28;20159;-77
2021/03/28 10:54:48;;;;;;;12.68;5.15;;;435.50;947.20;;;;;;5073631;28;20086;-77
2021/03/28 10:57:49;;;;;;;55.85;31.48;;;435.90;947.20;;;;;;5041912;28;20051;-77
2021/03/28 11:00:43;;;;;;;6.65;4.30;;;435.70;972.80;;;;;;5070941;28;20033;-79
2021/03/28 11:03:35;;;;;;;;;;;435.30;972.80;;;;;;5074936;28;20454;-77
2021/03/28 11:06:07;;;;;;;8.40;3.15;;;435.20;921.60;;;;;;5049996;28;19999;-77
2021/03/28 11:08:57;;;;;;;8.48;3.20;;;410.50;972.80;;;;;;5073866;28;20091;-77
2021/03/28 11:11:41;;;;;;;9.40;3.70;;;410.30;998.40;;;;;;5073918;28;20394;-78
2021/03/28 11:14:32;;;;;;;7.70;3.20;;;410.20;998.40;;;;;;5055421;28;20020;-76
2021/03/28 11:17:28;;;;;;;7.70;3.25;;;409.80;1075.20;;;;;;5072845;28;20090;-77
2021/03/28 11:20:20;;;;;;;9.18;3.50;;;409.80;1049.60;;;;;;5073129;28;20059;-77
2021/03/28 11:23:08;;;;;;;6.95;3.80;;;384.90;1024.00;;;;;;5074294;28;20562;-79
2021/03/28 11:25:59;;;;;;;12.27;3.78;;;409.60;1049.60;;;;;;5060981;28;20112;-80
2021/03/28 11:28:36;;;;;;;7.95;3.88;;;409.60;1024.00;;;;;;5071884;28;20095;-79
2021/03/28 11:31:33;;;;;;;7.70;3.40;;;384.70;1024.00;;;;;;5060224;28;20056;-82
2021/03/28 11:34:33;;;;;;;11.25;5.63;;;384.60;1049.60;;;;;;5086447;28;20100;-81
2021/03/28 11:37:03;;;;;;;11.32;5.25;;;384.60;1024.00;;;;;;5067263;28;20028;-80
2021/03/28 11:40:08;;;;;;;9.10;3.95;;;384.50;1024.00;;;;;;5069863;28;20056;-81
2021/03/28 11:43:12;;;;;;;14.02;4.95;;;384.30;1024.00;;;;;;5088743;28;20013;-80
2021/03/28 11:46:02;;;;;;;14.50;8.00;;;384.30;1024.00;;;;;;5069426;28;20055;-81
2021/03/28 11:48:33;;;;;;;16.40;9.38;;;384.30;1049.60;;;;;;5073009;28;20459;-75
2021/03/28 11:51:18;;;;;;;11.13;6.50;;;384.20;1024.00;;;;;;5071544;28;20044;-75
2021/03/28 11:53:46;;;;;;;9.68;4.82;;;384.30;1049.60;;;;;;5071461;28;20032;-76
2021/03/28 11:56:45;;;;;;;7.95;3.72;;;384.40;1049.60;;;;;;5062297;28;20029;-75
2021/03/28 11:59:20;;;;;;;13.52;4.15;;;384.40;1024.00;;;;;;5058854;28;20033;-74
2021/03/28 12:02:02;;;;;;;46.05;6.18;;;384.70;1024.00;;;;;;5071197;28;20034;-75
2021/03/28 12:04:31;;;;;;;9.13;4.60;;;384.60;1024.00;;;;;;5065418;28;20417;-75
2021/03/28 12:07:12;;;;;;;8.93;4.15;;;384.80;1024.00;;;;;;5069976;28;20075;-76
2021/03/28 12:09:38;;;;;;;9.30;4.90;;;384.70;1049.60;;;;;;5067427;28;20020;-77
2021/03/28 12:12:15;;;;;;;12.88;5.90;;;409.70;1100.80;;;;;;5070913;28;20036;-75
2021/03/28 12:14:41;;;;;;;10.00;4.90;;;384.30;1075.20;;;;;;5075670;28;20457;-76
2021/03/28 12:17:10;;;;;;;9.85;4.95;;;384.30;1049.60;;;;;;5069891;28;20036;-76
2021/03/28 12:19:41;;;;;;;8.95;4.85;;;384.40;1024.00;;;;;;5061551;28;20021;-75
2021/03/28 12:22:18;;;;;;;12.50;5.75;;;384.50;1024.00;;;;;;5070780;28;20059;-75
2021/03/28 12:24:46;;;;;;;9.75;4.43;;;384.50;1024.00;;;;;;5065235;28;20509;-76
2021/03/28 12:27:31;;;;;;;11.32;4.35;;;384.30;1024.00;;;;;;5070962;28;20031;-76
2021/03/28 12:29:57;;;;;;;17.33;6.30;;;384.50;1049.60;;;;;;5071260;28;20025;-75
2021/03/28 12:32:50;;;;;;;38.70;20.92;;;384.70;1049.60;;;;;;5061448;28;20068;-75
2021/03/28 12:35:24;;;;;;;17.65;10.52;;;384.50;1024.00;;;;;;5071723;28;20433;-76
2021/03/28 12:37:51;;;;;;;16.48;9.73;;;384.50;1024.00;;;;;;5070114;28;20024;-75
2021/03/28 12:40:32;;;;;;;13.48;8.85;;;384.50;1024.00;;;;;;5064025;28;20024;-75
2021/03/28 12:43:00;;;;;;;8.57;5.78;;;384.90;1024.00;;;;;;5067170;28;20550;-77
2021/03/28 12:45:26;;;;;;;10.00;3.90;;;409.80;1049.60;;;;;;5066178;28;20025;-78
2021/03/28 12:47:56;;;;;;;9.02;3.88;;;409.80;1024.00;;;;;;5068372;28;20039;-76
2021/03/28 12:50:42;;;;;;;7.20;4.32;;;409.90;1049.60;;;;;;5062110;28;20024;-75
2021/03/28 12:53:17;;;;;;;8.80;4.38;;;410.00;1024.00;;;;;;5057499;28;20036;-76
2021/03/28 12:55:50;;;;;;;8.50;4.20;;;409.70;1075.20;;;;;;5060600;28;20038;-76
2021/03/28 12:58:17;;;;;;;8.20;3.05;;;409.80;1024.00;;;;;;5065195;28;20396;-76
2021/03/28 13:00:53;;;;;;;8.30;3.60;;;410.00;1024.00;;;;;;5059158;28;20049;-76
2021/03/28 13:03:27;;;;;;;8.57;3.30;;;410.10;998.40;;;;;;5059141;28;20107;-77
2021/03/28 13:05:59;;;;;;;7.07;3.25;;;410.20;998.40;;;;;;5045897;28;20036;-76
2021/03/28 13:08:25;;;;;;;8.75;3.30;;;410.10;998.40;;;;;;5071157;28;20025;-76
2021/03/28 13:11:01;;;;;;;8.00;3.15;;;410.20;972.80;;;;;;5157552;23;20055;-70
2021/03/28 13:13:28;;;;;;;8.27;3.15;;;410.20;972.80;;;;;;5015787;28;20113;-73
2021/03/28 13:15:57;;;;;;;6.20;2.83;;;410.20;972.80;;;;;;5034139;28;20051;-70
2021/03/28 13:18:23;;;;;;;6.03;2.85;;;410.30;972.80;;;;;;5026531;28;20104;-70
2021/03/28 13:20:53;;;;;;;7.30;3.17;;;410.20;972.80;;;;;;5027140;28;20112;-73
2021/03/28 13:23:27;;;;;;;5.93;3.17;;;410.00;972.80;;;;;;5032624;28;20029;-69
2021/03/28 13:26:16;;;;;;;8.27;3.20;;;409.90;998.40;;;;;;5034782;28;20071;-72
2021/03/28 13:28:54;;;;;;;9.63;3.15;;;409.90;972.80;;;;;;5013571;28;20042;-70
2021/03/28 13:31:57;;;;;;;7.40;3.10;;;409.70;998.40;;;;;;5029933;28;20041;-68
2021/03/28 13:34:30;;;;;;;8.80;3.15;;;384.90;972.80;;;;;;4967758;28;20170;-71
2021/03/28 13:37:22;;;;;;;6.22;3.55;;;384.70;1049.60;;;;;;4969289;28;20070;-67
2021/03/28 13:40:11;;;;;;;12.02;6.25;;;384.60;1024.00;;;;;;4966206;28;20078;-73